Time;durP1;ratioP1;P1;durP2;ratioP2;P2;SDS_P1;SDS_P2;PMS_P1;PMS_P2;Temp;Humidity;BMP_temperature;BMP_pressure;BME280_temperature;BME280_humidity;BME280_pressure;Samples;Min_cycle;Max_cycle;Signal;HPM_P1;HPM_P2
2021/05/20 00:00:26;;;;;;;11.35;8.48;;;;;;;12.12;66.67;100303.26;128227;1098;22331;-73
2021/05/20 00:03:13;;;;;;;10.98;7.50;;;;;;;12.12;66.64;100312.02;128243;1100;22331;-73
2021/05/20 00:05:43;;;;;;;10.60;8.30;;;;;;;12.11;66.65;100315.67;128187;1098;22348;-73
2021/05/20 00:08:13;;;;;;;8.50;7.55;;;;;;;12.11;66.57;100315.67;128245;1097;24233;-74
2021/05/20 00:10:42;;;;;;;8.67;7.77;;;;;;;12.10;66.74;100314.04;128217;1097;24291;-73
2021/05/20 00:13:12;;;;;;;9.70;7.08;;;;;;;12.13;66.99;100323.43;127925;1101;23135;-73
2021/05/20 00:15:42;;;;;;;8.77;7.77;;;;;;;12.15;66.65;100314.31;127920;1104;22381;-73
2021/05/20 00:18:11;;;;;;;12.28;8.00;;;;;;;12.16;66.86;100313.33;127942;1104;22346;-73
2021/05/20 00:20:41;;;;;;;9.85;7.43;;;;;;;12.17;66.75;100312.32;127941;1104;22378;-73
2021/05/20 00:23:11;;;;;;;10.83;7.95;;;;;;;12.18;66.63;100323.73;127918;1104;22369;-73
2021/05/20 00:25:41;;;;;;;9.68;7.85;;;;;;;12.16;66.92;100323.92;127928;1101;24518;-73
2021/05/20 00:28:11;;;;;;;9.20;7.95;;;;;;;12.16;66.98;100321.28;127920;1101;25118;-73
2021/05/20 00:30:40;;;;;;;11.00;7.83;;;;;;;12.16;66.97;100328.37;127968;1101;25737;-73
2021/05/20 00:33:10;;;;;;;9.15;7.98;;;;;;;12.15;66.98;100322.26;128166;1101;22352;-73
2021/05/20 00:35:39;;;;;;;8.53;7.53;;;;;;;12.17;67.29;100319.45;128214;1098;22333;-74
2021/05/20 00:38:12;;;;;;;9.60;7.88;;;;;;;12.17;67.41;100325.56;128219;1101;22346;-74
2021/05/20 00:40:42;;;;;;;9.68;8.73;;;;;;;12.19;67.18;100333.31;128213;1101;22352;-73
2021/05/20 00:43:14;;;;;;;10.40;8.60;;;;;;;12.20;67.26;100329.69;128205;1097;24304;-72
2021/05/20 00:45:43;;;;;;;12.40;8.85;;;;;;;12.20;67.22;100341.09;128241;1101;22342;-73
2021/05/20 00:48:13;;;;;;;9.70;8.40;;;;;;;12.20;67.17;100335.80;128239;1101;22342;-73
2021/05/20 00:50:42;;;;;;;12.98;8.40;;;;;;;12.20;67.29;100341.09;128205;1101;22333;-73
2021/05/20 00:53:13;;;;;;;12.43;8.48;;;;;;;12.20;67.29;100333.15;128176;1101;22333;-73
2021/05/20 00:55:43;;;;;;;9.60;7.95;;;;;;;12.20;67.29;100349.05;128197;1101;22331;-74
2021/05/20 00:58:15;;;;;;;10.73;8.08;;;;;;;12.19;67.24;100349.20;128210;1098;22318;-74
2021/05/20 01:00:45;;;;;;;9.75;8.43;;;;;;;12.16;67.51;100345.11;128220;1098;22334;-73
2021/05/20 01:03:14;;;;;;;10.73;8.35;;;;;;;12.16;67.44;100345.11;128228;1098;22348;-73
2021/05/20 01:05:44;;;;;;;10.23;8.15;;;;;;;12.15;67.48;100354.03;128222;1101;22358;-73
2021/05/20 01:08:14;;;;;;;9.50;8.13;;;;;;;12.15;67.67;100342.63;128183;1101;23029;-73
2021/05/20 01:10:43;;;;;;;11.75;8.45;;;;;;;12.13;67.72;100344.61;128260;1098;24486;-73
2021/05/20 01:13:13;;;;;;;7.80;7.00;;;;;;;12.13;67.68;100344.61;128251;1098;24918;-74
2021/05/20 01:15:43;;;;;;;10.30;8.80;;;;;;;12.11;67.71;100339.51;128251;1098;22420;-73
2021/05/20 01:18:13;;;;;;;10.25;7.93;;;;;;;12.10;67.84;100351.11;128178;1101;22385;-73
2021/05/20 01:20:44;;;;;;;9.88;8.78;;;;;;;12.08;67.71;100352.28;128227;1098;22343;-73
2021/05/20 01:23:18;;;;;;;9.38;8.45;;;;;;;12.05;67.71;100350.80;128216;1101;22348;-73
2021/05/20 01:25:50;;;;;;;10.00;8.80;;;;;;;12.03;67.88;100350.18;128234;1098;22348;-73
2021/05/20 01:28:25;;;;;;;8.60;7.73;;;;;;;12.01;67.80;100358.28;128035;1101;25003;-73
2021/05/20 01:30:55;;;;;;;11.57;8.97;;;;;;;12.00;67.73;100356.64;128139;1101;22365;-73
2021/05/20 01:33:25;;;;;;;8.50;7.70;;;;;;;12.00;67.90;100358.47;128150;1102;22365;-73
2021/05/20 01:35:55;;;;;;;10.00;7.85;;;;;;;12.00;67.91;100361.94;127965;1099;24312;-73
2021/05/20 01:41:02;;;;;;;7.78;6.98;;;;;;;11.95;67.50;100348.39;127967;1099;24520;-73
2021/05/20 01:43:33;;;;;;;10.40;7.60;;;;;;;11.93;67.58;100347.77;128041;1101;23233;-73
2021/05/20 01:46:05;;;;;;;11.33;7.57;;;;;;;11.88;67.28;100357.23;128198;1098;22333;-74
2021/05/20 01:48:44;;;;;;;;;;;;;;;11.76;67.26;100360.26;128247;1098;24486;-72
2021/05/20 01:51:21;;;;;;;8.20;7.40;;;;;;;11.64;67.95;100350.23;128197;1101;21270;-73
2021/05/20 01:53:56;;;;;;;8.08;7.28;;;;;;;11.60;67.76;100357.70;128228;1098;22404;-80
2021/05/20 01:56:25;;;;;;;8.07;7.30;;;;;;;11.54;67.75;100358.39;128295;1101;22377;-78
2021/05/20 01:58:56;;;;;;;9.78;8.35;;;;;;;11.50;67.93;100359.75;128221;1101;22352;-73
2021/05/20 02:01:25;;;;;;;8.75;7.65;;;;;;;11.45;68.05;100352.31;128243;1101;22365;-74
2021/05/20 02:03:55;;;;;;;9.48;8.43;;;;;;;11.42;68.26;100362.42;128218;1098;25057;-74
2021/05/20 02:06:25;;;;;;;9.05;6.83;;;;;;;11.40;68.53;100361.78;128186;1100;22810;-74
2021/05/20 02:08:55;;;;;;;10.90;7.80;;;;;;;11.36;68.48;100355.98;128175;1098;25112;-74
2021/05/20 02:11:25;;;;;;;9.55;7.48;;;;;;;11.35;68.49;100361.47;128233;1101;22347;-74
2021/05/20 02:13:54;;;;;;;8.10;7.33;;;;;;;11.32;68.67;100362.63;128216;1098;22352;-74
2021/05/20 02:16:24;;;;;;;8.43;7.35;;;;;;;11.27;68.66;100365.80;128205;1098;22383;-74
2021/05/20 02:18:54;;;;;;;9.78;8.18;;;;;;;11.23;68.70;100364.50;128256;1098;24236;-75
2021/05/20 02:21:24;;;;;;;8.85;7.13;;;;;;;11.19;68.63;100367.64;128225;1101;22367;-74
2021/05/20 02:23:53;;;;;;;8.53;7.73;;;;;;;11.12;68.58;100364.86;128194;1101;22345;-74
2021/05/20 02:26:24;;;;;;;9.88;8.58;;;;;;;11.07;68.69;100365.38;128263;1101;22456;-74
2021/05/20 02:28:53;;;;;;;9.83;8.80;;;;;;;11.05;68.80;100371.82;128211;1100;22387;-74
2021/05/20 02:31:23;;;;;;;9.25;8.33;;;;;;;10.99;68.91;100372.50;128180;1101;22352;-74
2021/05/20 02:33:53;;;;;;;10.15;8.73;;;;;;;10.93;68.72;100375.81;128234;1098;22352;-74
2021/05/20 02:36:22;;;;;;;10.53;8.50;;;;;;;10.88;69.01;100375.52;127914;1104;22374;-75
2021/05/20 02:38:52;;;;;;;10.08;7.80;;;;;;;10.82;69.09;100379.64;127972;1104;22365;-75
2021/05/20 02:41:21;;;;;;;11.08;7.15;;;;;;;10.76;69.39;100380.31;127980;1104;22359;-75
2021/05/20 02:43:51;;;;;;;12.03;7.80;;;;;;;10.70;69.21;100379.19;127931;1103;22380;-76
2021/05/20 02:46:20;;;;;;;8.45;7.65;;;;;;;10.66;69.20;100384.95;127926;1100;22407;-74
2021/05/20 02:48:50;;;;;;;10.28;7.75;;;;;;;10.61;69.36;100393.39;127898;1104;22372;-74
2021/05/20 02:51:22;;;;;;;7.40;6.33;;;;;;;10.59;69.21;100392.72;127919;1104;22356;-74
2021/05/20 02:53:52;;;;;;;8.35;7.00;;;;;;;10.56;69.38;100388.63;127940;1102;23034;-76
2021/05/20 02:56:21;;;;;;;8.95;7.43;;;;;;;10.53;69.43;100388.10;128260;1101;22365;-75
2021/05/20 02:58:51;;;;;;;9.38;8.13;;;;;;;10.50;69.55;100388.46;128198;1101;22348;-75
2021/05/20 03:01:23;;;;;;;10.18;7.93;;;;;;;10.49;69.58;100390.25;128235;1101;23866;-75
2021/05/20 03:03:53;;;;;;;10.15;7.93;;;;;;;10.46;69.61;100385.33;128245;1101;22355;-75
2021/05/20 03:06:24;;;;;;;8.93;7.83;;;;;;;10.45;69.94;100386.30;128219;1101;22429;-75
2021/05/20 03:08:56;;;;;;;14.28;8.38;;;;;;;10.41;69.47;100386.81;128184;1098;22352;-74
2021/05/20 03:11:27;;;;;;;12.30;8.30;;;;;;;10.36;69.73;100398.70;128246;1101;22365;-75
2021/05/20 03:13:57;;;;;;;;;;;;;;;10.27;69.42;100394.41;128301;1098;24990;-75
2021/05/20 03:16:27;;;;;;;11.25;7.60;;;;;;;10.22;69.92;100404.58;128212;1101;22777;-75
2021/05/20 03:18:56;;;;;;;17.25;8.28;;;;;;;10.23;70.10;100400.98;128245;1098;24482;-75
2021/05/20 03:21:26;;;;;;;14.45;8.48;;;;;;;10.25;70.07;100398.98;128243;1101;22350;-75
2021/05/20 03:23:56;;;;;;;12.63;9.03;;;;;;;10.27;70.29;100406.78;128284;1101;22346;-74
2021/05/20 03:26:29;;;;;;;15.55;9.48;;;;;;;10.28;70.38;100400.50;128214;1101;22820;-75
2021/05/20 03:28:58;;;;;;;13.98;9.13;;;;;;;10.31;70.49;100408.92;128231;1098;22353;-74
2021/05/20 03:31:28;;;;;;;11.60;8.95;;;;;;;10.32;70.44;100397.36;128225;1098;24983;-75
2021/05/20 03:33:58;;;;;;;11.63;9.60;;;;;;;10.35;70.33;100398.84;128218;1101;22350;-75
2021/05/20 03:36:28;;;;;;;15.05;9.73;;;;;;;10.37;70.43;100402.16;128254;1101;22406;-75
2021/05/20 03:38:57;;;;;;;10.40;8.98;;;;;;;10.36;70.33;100414.55;128241;1101;22350;-74
2021/05/20 03:41:27;;;;;;;13.88;9.80;;;;;;;10.36;70.24;100408.41;128273;1098;22524;-75
2021/05/20 03:43:56;;;;;;;15.43;9.23;;;;;;;10.36;70.33;100403.13;128234;1101;22364;-74
2021/05/20 03:46:31;;;;;;;12.60;9.35;;;;;;;10.39;70.41;100401.98;128260;1101;22366;-75
2021/05/20 03:49:00;;;;;;;20.20;9.95;;;;;;;10.42;70.44;100410.40;128305;1101;22811;-75
2021/05/20 03:51:30;;;;;;;14.40;10.18;;;;;;;10.47;70.48;100412.56;128139;1098;22368;-75
2021/05/20 03:54:00;;;;;;;10.70;9.73;;;;;;;10.51;70.52;100413.88;128190;1098;22360;-75
2021/05/20 03:56:30;;;;;;;13.33;8.83;;;;;;;10.52;70.26;100418.98;128155;1098;22449;-75
2021/05/20 03:58:59;;;;;;;17.08;9.03;;;;;;;10.54;70.25;100416.19;128164;1098;22343;-75
2021/05/20 04:01:29;;;;;;;13.75;8.98;;;;;;;10.56;70.20;100420.32;128172;1101;22363;-74
2021/05/20 04:03:59;;;;;;;10.78;8.63;;;;;;;10.59;70.10;100427.06;128226;1098;22385;-75
2021/05/20 04:06:28;;;;;;;8.68;7.58;;;;;;;10.60;70.07;100426.91;128199;1101;22343;-75
2021/05/20 04:08:58;;;;;;;8.60;7.65;;;;;;;10.63;69.78;100431.05;128218;1098;22381;-76
2021/05/20 04:11:29;;;;;;;13.37;9.13;;;;;;;10.67;69.67;100428.90;128173;1101;22340;-75
2021/05/20 04:13:58;;;;;;;9.75;7.50;;;;;;;10.72;69.59;100434.49;128176;1098;23930;-75
2021/05/20 04:16:28;;;;;;;8.23;7.20;;;;;;;10.76;69.46;100436.66;128180;1101;22562;-75
2021/05/20 04:18:58;;;;;;;10.83;7.50;;;;;;;10.84;69.34;100433.16;128140;1098;24520;-75
2021/05/20 04:21:28;;;;;;;9.60;7.17;;;;;;;10.89;69.14;100435.30;128177;1098;22433;-76
2021/05/20 04:23:58;;;;;;;10.05;6.93;;;;;;;10.96;68.84;100433.63;128210;1100;22378;-75
2021/05/20 04:26:28;;;;;;;13.15;8.05;;;;;;;11.04;68.68;100433.63;128200;1098;24520;-76
2021/05/20 04:28:58;;;;;;;11.98;8.20;;;;;;;11.16;68.58;100442.01;128189;1098;24479;-75
2021/05/20 04:31:27;;;;;;;10.10;7.55;;;;;;;11.25;68.31;100441.82;128162;1101;22361;-75
2021/05/20 04:33:57;;;;;;;7.80;7.05;;;;;;;11.31;67.58;100438.50;128207;1101;22582;-75
2021/05/20 04:36:27;;;;;;;8.23;7.05;;;;;;;11.38;67.44;100443.11;128233;1101;22364;-75
2021/05/20 04:38:57;;;;;;;10.38;7.78;;;;;;;11.43;67.27;100449.55;128191;1098;22361;-75
2021/05/20 04:41:27;;;;;;;9.28;8.05;;;;;;;11.50;66.87;100449.70;128180;1101;22361;-75
2021/05/20 04:43:56;;;;;;;9.03;7.15;;;;;;;11.57;66.83;100448.01;128208;1101;22341;-75
2021/05/20 04:46:26;;;;;;;18.30;7.80;;;;;;;11.68;66.54;100452.91;128183;1098;22359;-74
2021/05/20 04:48:56;;;;;;;17.70;8.95;;;;;;;11.80;66.30;100455.19;128150;1098;25005;-75
2021/05/20 04:51:29;;;;;;;17.23;7.15;;;;;;;11.92;66.17;100454.63;128148;1101;22421;-74
2021/05/20 04:53:58;;;;;;;8.80;6.08;;;;;;;12.07;65.73;100452.09;128216;1098;22334;-74
2021/05/20 04:56:28;;;;;;;7.73;6.73;;;;;;;12.21;65.37;100459.27;128242;1101;22330;-74
2021/05/20 04:58:58;;;;;;;8.88;6.88;;;;;;;12.34;64.83;100457.87;128182;1098;22515;-74
2021/05/20 05:01:27;;;;;;;7.13;5.90;;;;;;;12.44;64.40;100459.27;128219;1101;22331;-75
2021/05/20 05:03:57;;;;;;;14.95;7.40;;;;;;;12.61;64.17;100453.84;128210;1098;22331;-75
2021/05/20 05:06:27;;;;;;;12.65;8.20;;;;;;;12.78;63.46;100457.18;128201;1098;22480;-75
2021/05/20 05:08:57;;;;;;;6.90;6.08;;;;;;;12.96;63.63;100460.30;128270;1097;24233;-75
2021/05/20 05:11:26;;;;;;;7.90;5.63;;;;;;;13.18;62.57;100466.56;128206;1098;24217;-75
2021/05/20 05:13:56;;;;;;;7.43;5.30;;;;;;;13.46;61.92;100458.81;128227;1098;24223;-76
2021/05/20 05:16:25;;;;;;;7.70;5.48;;;;;;;13.67;61.04;100467.88;128232;1101;22376;-76
2021/05/20 05:18:55;;;;;;;6.53;5.30;;;;;;;13.90;60.30;100468.58;128218;1101;22357;-76
2021/05/20 05:21:25;;;;;;;9.55;5.58;;;;;;;14.13;59.46;100465.77;128165;1098;22348;-75
2021/05/20 05:23:54;;;;;;;7.23;5.08;;;;;;;14.40;58.96;100468.70;128241;1101;23123;-76
2021/05/20 05:26:24;;;;;;;7.43;4.78;;;;;;;14.62;57.83;100469.52;128255;1101;23119;-74
2021/05/20 05:28:54;;;;;;;5.28;4.73;;;;;;;14.90;57.32;100469.57;128213;1101;22345;-75
2021/05/20 05:31:25;;;;;;;7.05;4.55;;;;;;;15.27;57.00;100473.70;128218;1098;22336;-74
2021/05/20 05:33:55;;;;;;;;;;;;;;;15.54;55.60;100472.02;128263;1101;22349;-75
2021/05/20 05:36:25;;;;;;;5.60;4.25;;;;;;;15.80;55.44;100483.84;128193;1101;21267;-75
2021/05/20 05:38:55;;;;;;;4.23;3.83;;;;;;;16.06;54.34;100489.28;128223;1101;22336;-75
2021/05/20 05:41:24;;;;;;;9.45;4.93;;;;;;;16.44;53.93;100486.89;128233;1101;22336;-75
2021/05/20 05:43:54;;;;;;;5.33;4.45;;;;;;;16.91;52.94;100490.44;128221;1098;24170;-75
2021/05/20 05:46:24;;;;;;;5.25;3.70;;;;;;;17.36;51.57;100485.27;128235;1098;24472;-76
2021/05/20 05:49:00;;;;;;;26.43;23.78;;;;;;;17.64;50.19;100492.16;128217;1101;22368;-76
2021/05/20 05:51:31;;;;;;;6.40;5.70;;;;;;;17.90;49.61;100493.13;128231;1098;24135;-76
2021/05/20 05:54:01;;;;;;;5.05;3.80;;;;;;;18.22;49.02;100494.80;128234;1098;24491;-76
2021/05/20 05:56:31;;;;;;;6.83;3.83;;;;;;;18.38;47.50;100488.13;128232;1101;22354;-76
2021/05/20 05:59:17;;;;;;;3.45;2.75;;;;;;;18.66;47.19;100490.42;128268;1101;22355;-76
2021/05/20 06:01:48;;;;;;;4.58;3.10;;;;;;;18.96;46.18;100485.26;128223;1101;22365;-76
2021/05/20 06:04:18;;;;;;;5.65;3.18;;;;;;;19.22;45.25;100497.55;128244;1101;22451;-76
2021/05/20 06:06:48;;;;;;;4.95;2.95;;;;;;;19.32;44.14;100493.56;128273;1101;22350;-75
2021/05/20 06:09:18;;;;;;;3.88;2.90;;;;;;;19.39;44.05;100489.79;128251;1101;22385;-76
2021/05/20 06:11:47;;;;;;;4.75;3.45;;;;;;;19.65;43.74;100499.41;128001;1104;22491;-77
2021/05/20 06:14:17;;;;;;;3.95;3.10;;;;;;;19.84;43.21;100491.36;127927;1104;22417;-74
2021/05/20 06:16:47;;;;;;;4.95;3.13;;;;;;;19.94;42.79;100497.82;127963;1104;22366;-75
2021/05/20 06:19:16;;;;;;;3.98;2.70;;;;;;;20.08;42.17;100503.02;127975;1104;22489;-74
2021/05/20 06:21:46;;;;;;;3.30;2.95;;;;;;;20.21;42.07;100503.65;127957;1104;22371;-77
2021/05/20 06:24:15;;;;;;;5.73;3.40;;;;;;;20.33;41.63;100508.26;127945;1104;22363;-76
2021/05/20 06:26:45;;;;;;;3.05;2.75;;;;;;;20.51;41.19;100502.03;127967;1104;22341;-75
2021/05/20 06:29:15;;;;;;;5.27;3.17;;;;;;;20.84;40.69;100512.25;128026;1102;22342;-76
2021/05/20 06:31:49;;;;;;;3.60;2.83;;;;;;;20.96;40.18;100504.19;128402;1101;23242;-75
2021/05/20 06:34:19;;;;;;;2.93;2.13;;;;;;;21.07;39.31;100508.77;128023;1098;24521;-75
2021/05/20 06:36:49;;;;;;;6.90;2.63;;;;;;;21.10;39.05;100494.88;128201;1101;22356;-76
2021/05/20 06:39:19;;;;;;;3.05;2.30;;;;;;;21.25;39.21;100502.45;128250;1101;22382;-76
2021/05/20 06:41:48;;;;;;;3.10;2.20;;;;;;;21.45;38.80;100505.62;128259;1101;22355;-75
2021/05/20 06:44:18;;;;;;;4.70;2.48;;;;;;;21.60;38.06;100505.14;128287;1098;24329;-75
2021/05/20 06:46:47;;;;;;;5.00;2.88;;;;;;;21.83;38.04;100506.96;128296;1101;22382;-76
2021/05/20 06:49:20;;;;;;;6.80;2.58;;;;;;;22.07;37.41;100502.31;128201;1101;22383;-75
2021/05/20 06:51:49;;;;;;;2.00;1.80;;;;;;;22.25;37.03;100510.20;128242;1098;24487;-76
2021/05/20 06:54:19;;;;;;;2.25;1.75;;;;;;;22.35;35.73;100512.27;128258;1101;22349;-76
2021/05/20 06:57:01;;;;;;;5.08;2.40;;;;;;;22.30;35.72;100515.70;128218;1101;22337;-76
2021/05/20 07:02:19;;;;;;;4.30;2.48;;;;;;;22.57;35.43;100514.28;127986;1104;22381;-75
2021/05/20 07:04:49;;;;;;;2.90;1.85;;;;;;;22.75;35.53;100508.65;127935;1104;23930;-76
2021/05/20 07:07:19;;;;;;;4.77;2.93;;;;;;;22.87;34.76;100512.09;127523;1101;24546;-75
2021/05/20 07:09:50;;;;;;;3.20;2.30;;;;;;;22.96;35.05;100515.23;128024;1104;22381;-74
2021/05/20 07:12:19;;;;;;;2.53;2.00;;;;;;;23.17;34.35;100514.47;127979;1101;25040;-76
2021/05/20 07:14:49;;;;;;;3.50;1.78;;;;;;;23.43;34.18;100510.25;127925;1101;23163;-76
2021/05/20 07:17:19;;;;;;;2.83;1.90;;;;;;;23.51;33.31;100511.70;128009;1101;22452;-75
2021/05/20 07:19:50;;;;;;;3.78;2.10;;;;;;;23.49;33.24;100514.66;128213;1101;22431;-76
2021/05/20 07:22:19;;;;;;;5.50;1.90;;;;;;;23.58;32.92;100522.30;128207;1101;22892;-75
2021/05/20 07:24:49;;;;;;;5.08;1.83;;;;;;;23.86;32.45;100515.95;128303;1098;22375;-75
2021/05/20 07:27:19;;;;;;;7.00;2.20;;;;;;;23.94;32.34;100518.20;128240;1098;24975;-75
2021/05/20 07:29:49;;;;;;;4.33;2.67;;;;;;;24.07;32.26;100514.30;128245;1101;22343;-75
2021/05/20 07:32:20;;;;;;;3.83;2.88;;;;;;;24.12;32.08;100514.34;128206;1098;24154;-74
2021/05/20 07:34:49;;;;;;;3.10;2.60;;;;;;;24.10;31.89;100519.19;128223;1098;22399;-75
2021/05/20 07:37:20;;;;;;;2.70;2.08;;;;;;;24.04;31.93;100523.70;128259;1098;24160;-75
2021/05/20 07:39:50;;;;;;;17.40;3.23;;;;;;;24.10;31.97;100520.00;128230;1101;22732;-75
2021/05/20 07:42:19;;;;;;;4.53;2.60;;;;;;;24.15;32.36;100513.83;128308;1101;23266;-75
2021/05/20 07:44:54;;;;;;;4.08;2.18;;;;;;;24.22;32.03;100509.05;128262;1098;22347;-75
2021/05/20 07:47:24;;;;;;;2.67;1.97;;;;;;;24.36;32.20;100514.88;128047;1101;22343;-75
2021/05/20 07:49:54;;;;;;;3.25;2.08;;;;;;;24.60;31.12;100520.80;128472;1098;25282;-75
2021/05/20 07:52:24;;;;;;;2.23;2.03;;;;;;;24.66;30.94;100514.38;128058;1101;22340;-75
2021/05/20 07:54:56;;;;;;;7.38;4.85;;;;;;;24.83;30.51;100519.64;128252;1101;22362;-76
2021/05/20 07:57:26;;;;;;;3.60;2.05;;;;;;;24.89;30.15;100516.72;128212;1101;22802;-75
2021/05/20 07:59:56;;;;;;;;;;;;;;;24.82;29.12;100517.99;128214;1101;22852;-75
2021/05/20 08:05:02;;;;;;;3.60;3.18;;;;;;;24.69;30.35;100521.13;128254;1100;22343;-76
2021/05/20 08:10:44;;;;;;;4.05;2.90;;;;;;;24.38;30.78;100515.42;128063;1101;22384;-76
2021/05/20 08:13:14;;;;;;;3.33;2.57;;;;;;;24.45;31.04;100515.24;128215;1101;22383;-76
2021/05/20 08:15:45;;;;;;;5.00;2.20;;;;;;;24.57;30.55;100508.61;127923;1101;24524;-76
2021/05/20 08:18:16;;;;;;;3.00;1.80;;;;;;;24.68;30.06;100506.80;127980;1104;23151;-75
2021/05/20 08:20:46;;;;;;;3.90;2.48;;;;;;;24.79;29.69;100508.54;127950;1104;22399;-77
2021/05/20 08:23:17;;;;;;;6.50;2.30;;;;;;;24.81;29.71;100514.48;127939;1101;24220;-75
2021/05/20 08:25:46;;;;;;;;;;;;;;;24.81;29.68;100513.67;127935;1104;23336;-75
2021/05/20 08:28:17;;;;;;;2.75;1.80;;;;;;;24.75;29.74;100518.20;127983;1104;22462;-75
2021/05/20 08:30:47;;;;;;;2.98;1.93;;;;;;;24.93;29.88;100513.50;128020;1104;22394;-75
2021/05/20 08:33:17;;;;;;;3.40;2.23;;;;;;;25.18;28.95;100507.47;128034;1098;22523;-74
2021/05/20 08:35:48;;;;;;;6.58;2.28;;;;;;;25.24;29.27;100506.44;128222;1101;23207;-75
2021/05/20 08:38:18;;;;;;;5.00;1.98;;;;;;;25.34;29.05;100506.48;128219;1101;22379;-75
2021/05/20 08:40:48;;;;;;;1.70;1.43;;;;;;;25.45;28.35;100505.45;128287;1098;24476;-75
2021/05/20 08:43:17;;;;;;;5.05;1.63;;;;;;;25.33;28.37;100519.20;128181;1101;22405;-76
2021/05/20 08:45:48;;;;;;;2.60;1.58;;;;;;;25.18;28.25;100515.58;128194;1098;25102;-78
2021/05/20 08:48:18;;;;;;;2.90;1.73;;;;;;;25.30;29.03;100527.83;128453;1101;22330;-75
2021/05/20 08:50:47;;;;;;;3.03;1.70;;;;;;;25.53;28.41;100523.91;128236;1098;24481;-75
2021/05/20 08:53:17;;;;;;;6.50;2.45;;;;;;;25.68;28.06;100517.74;128255;1101;22354;-76
2021/05/20 08:55:47;;;;;;;4.15;2.20;;;;;;;25.76;28.19;100522.66;128360;1101;22343;-75
2021/05/20 08:58:22;;;;;;;4.25;2.05;;;;;;;25.79;28.33;100522.14;128329;1101;22352;-75
2021/05/20 09:00:53;;;;;;;3.13;2.03;;;;;;;25.96;28.29;100515.73;128242;1098;24476;-74
2021/05/20 09:03:23;;;;;;;3.55;1.80;;;;;;;26.01;27.85;100515.73;128282;1098;22340;-76
2021/05/20 09:06:04;;;;;;;2.08;1.70;;;;;;;26.04;27.19;100517.91;128243;1101;22373;-75
2021/05/20 09:08:35;;;;;;;3.58;1.80;;;;;;;25.69;27.43;100523.96;128235;1101;22354;-74
2021/05/20 09:11:05;;;;;;;2.90;1.80;;;;;;;25.61;28.09;100522.59;128404;1101;22355;-75
2021/05/20 09:13:37;;;;;;;2.25;1.38;;;;;;;25.59;27.54;100520.16;128201;1098;22361;-76
2021/05/20 09:16:13;;;;;;;3.13;1.83;;;;;;;25.68;27.26;100519.64;128220;1098;22374;-76
2021/05/20 09:18:43;;;;;;;2.65;2.05;;;;;;;25.88;27.41;100518.94;128245;1101;22353;-76
2021/05/20 09:21:13;;;;;;;2.83;1.48;;;;;;;26.02;27.08;100520.05;128295;1098;22339;-74
2021/05/20 09:23:48;;;;;;;2.70;1.58;;;;;;;26.10;26.66;100516.03;128416;1101;22340;-75
2021/05/20 09:26:33;;;;;;;2.10;1.53;;;;;;;25.88;25.96;100510.81;128056;1101;22348;-75
2021/05/20 09:29:10;;;;;;;2.73;2.10;;;;;;;25.30;27.16;100514.31;128082;1101;22361;-74
2021/05/20 09:31:43;;;;;;;3.90;2.45;;;;;;;25.20;27.92;100506.14;128281;1101;22344;-75
2021/05/20 09:34:17;;;;;;;2.75;1.93;;;;;;;25.24;27.44;100506.44;128538;1101;22340;-75
2021/05/20 09:36:49;;;;;;;2.98;2.43;;;;;;;25.07;27.67;100501.97;128250;1101;22812;-75
2021/05/20 09:39:19;;;;;;;2.43;1.77;;;;;;;25.04;27.88;100493.58;128253;1098;22349;-75
2021/05/20 09:42:14;;;;;;;4.03;2.28;;;;;;;25.07;28.03;100509.27;128291;1101;23109;-74
2021/05/20 09:44:44;;;;;;;3.80;1.88;;;;;;;24.92;27.70;100501.86;128213;1101;22364;-76
2021/05/20 09:47:14;;;;;;;2.65;1.80;;;;;;;24.38;27.63;100497.33;128177;1101;22339;-75
2021/05/20 09:50:06;;;;;;;3.73;2.10;;;;;;;23.65;28.36;100491.38;128216;1098;24252;-76
2021/05/20 09:52:36;;;;;;;5.60;2.55;;;;;;;23.45;29.38;100488.42;128204;1098;24476;-74
2021/05/20 09:55:25;;;;;;;3.15;2.00;;;;;;;23.64;29.75;100486.25;128251;1101;23123;-75
2021/05/20 09:57:56;;;;;;;2.90;2.25;;;;;;;23.82;29.29;100493.22;127926;1101;22469;-75
2021/05/20 10:00:26;;;;;;;3.83;3.30;;;;;;;23.80;29.58;100484.59;128007;1104;22820;-73
2021/05/20 10:03:06;;;;;;;4.28;2.33;;;;;;;23.75;29.65;100485.32;127957;1104;22446;-75
2021/05/20 10:05:38;;;;;;;3.33;2.45;;;;;;;23.83;29.62;100484.89;127915;1105;22371;-75
2021/05/20 10:08:12;;;;;;;3.73;2.38;;;;;;;23.92;29.40;100483.36;128071;1105;22387;-76
2021/05/20 10:10:48;;;;;;;2.83;1.90;;;;;;;24.00;29.02;100489.39;127612;1104;22388;-75
2021/05/20 10:13:25;;;;;;;3.13;2.07;;;;;;;23.91;29.19;100491.72;127986;1103;22393;-75
2021/05/20 10:15:57;;;;;;;3.98;2.48;;;;;;;23.73;29.12;100482.08;127953;1104;22393;-75
2021/05/20 10:18:29;;;;;;;5.03;2.48;;;;;;;23.64;28.99;100478.97;128024;1104;22475;-75
2021/05/20 10:21:02;;;;;;;3.38;2.40;;;;;;;23.22;29.24;100484.06;128150;1098;22339;-74
2021/05/20 10:23:32;;;;;;;3.05;2.08;;;;;;;22.73;29.40;100481.16;128277;1101;22344;-75
2021/05/20 10:26:03;;;;;;;2.73;2.38;;;;;;;22.26;30.37;100478.76;128264;1098;23119;-75
2021/05/20 10:28:32;;;;;;;4.65;3.03;;;;;;;21.78;30.41;100482.64;128090;1101;22803;-76
2021/05/20 10:31:04;;;;;;;3.95;2.78;;;;;;;21.33;31.32;100475.24;128215;1098;22333;-76
2021/05/20 10:33:33;;;;;;;5.33;3.10;;;;;;;20.99;32.17;100472.31;128034;1101;22809;-76
2021/05/20 10:36:04;;;;;;;4.05;2.63;;;;;;;20.78;32.51;100473.72;128195;1098;22355;-75
2021/05/20 10:38:33;;;;;;;4.85;3.10;;;;;;;20.59;32.47;100475.69;128254;1098;22360;-75
2021/05/20 10:41:22;;;;;;;4.40;3.07;;;;;;;20.33;33.19;100471.51;127966;1104;22475;-75
2021/05/20 10:44:06;;;;;;;5.43;3.13;;;;;;;20.07;33.60;100470.02;128060;1101;22349;-75
2021/05/20 10:47:03;;;;;;;3.28;2.98;;;;;;;19.95;34.12;100472.64;127978;1101;25016;-75
2021/05/20 10:49:53;;;;;;;3.80;3.00;;;;;;;19.85;34.18;100466.19;127995;1104;22433;-75
2021/05/20 10:52:55;;;;;;;3.50;2.60;;;;;;;19.72;34.79;100473.34;127990;1104;22350;-75
2021/05/20 10:55:37;;;;;;;3.58;2.65;;;;;;;19.67;35.13;100465.17;127537;1104;22399;-77
2021/05/20 10:58:07;;;;;;;3.40;2.73;;;;;;;19.83;35.20;100460.25;127630;1107;22371;-75
2021/05/20 11:00:45;;;;;;;4.68;2.85;;;;;;;20.04;35.61;100462.42;128025;1105;22365;-75
2021/05/20 11:03:14;;;;;;;3.40;2.65;;;;;;;20.08;35.15;100454.74;127956;1104;22380;-75
2021/05/20 11:05:54;;;;;;;3.28;2.85;;;;;;;20.12;35.29;100454.05;127956;1101;22446;-75
2021/05/20 11:08:27;;;;;;;4.33;2.20;;;;;;;20.31;35.05;100452.13;127957;1104;22362;-74
2021/05/20 11:10:59;;;;;;;3.83;2.68;;;;;;;20.40;34.41;100444.58;127453;1103;22391;-75
2021/05/20 11:13:46;;;;;;;3.38;2.70;;;;;;;20.35;34.26;100450.62;127483;1104;25261;-76
2021/05/20 11:16:36;;;;;;;3.53;2.45;;;;;;;20.20;34.63;100443.01;127554;1103;24513;-75
2021/05/20 11:19:19;;;;;;;6.18;2.83;;;;;;;20.08;34.87;100444.83;127542;1104;22377;-75
2021/05/20 11:22:18;;;;;;;4.25;3.38;;;;;;;19.99;34.63;100446.19;127486;1104;22389;-76
2021/05/20 11:25:10;;;;;;;4.27;3.20;;;;;;;19.75;35.69;100447.95;127488;1108;22788;-76
2021/05/20 11:27:40;;;;;;;5.00;2.90;;;;;;;19.45;36.82;100458.59;127048;1108;22408;-76
2021/05/20 11:30:14;;;;;;;5.08;3.18;;;;;;;19.18;37.55;100456.20;127407;1104;22384;-75
2021/05/20 11:32:52;;;;;;;3.60;3.30;;;;;;;18.95;37.96;100456.83;127915;1099;24253;-75
2021/05/20 11:37:51;;;;;;;4.23;3.00;;;;;;;18.72;39.88;100449.41;127943;1104;22368;-75
2021/05/20 11:40:33;;;;;;;7.53;3.78;;;;;;;18.72;40.27;100451.27;127958;1104;22370;-74
2021/05/20 11:43:03;;;;;;;8.15;4.45;;;;;;;18.86;40.99;100439.44;128005;1101;22365;-75
2021/05/20 11:45:34;;;;;;;6.53;4.30;;;;;;;19.05;41.58;100435.72;128001;1104;22351;-74
2021/05/20 11:48:05;;;;;;;4.30;3.90;;;;;;;19.18;40.95;100437.45;127960;1101;22373;-74
2021/05/20 11:50:34;;;;;;;6.45;3.98;;;;;;;19.16;39.81;100436.03;127977;1101;24258;-75